Time;durP1;ratioP1;P1;durP2;ratioP2;P2;SDS_P1;SDS_P2;PMS_P1;PMS_P2;Temp;Humidity;BMP_temperature;BMP_pressure;BME280_temperature;BME280_humidity;BME280_pressure;Samples;Min_cycle;Max_cycle;Signal;HPM_P1;HPM_P2
2023/07/01 07:23:06;;;;;;;3.35;2.42;;;;;;;-145.79;93.10;76406.59;5278893;28;20393;-66
2023/07/01 07:25:37;;;;;;;2.70;2.50;;;;;;;-145.79;93.58;76410.84;5279640;28;20492;-66
2023/07/01 07:28:08;;;;;;;3.20;2.63;;;;;;;-145.79;93.49;76398.13;5254842;28;20038;-67
2023/07/01 07:30:40;;;;;;;2.65;2.38;;;;;;;-145.79;92.34;76383.28;5253620;28;20033;-67
2023/07/01 07:33:11;;;;;;;2.38;2.17;;;;;;;-145.79;91.66;76370.56;5238425;28;20375;-65
2023/07/01 07:35:42;;;;;;;2.78;2.22;;;;;;;-145.79;91.14;76366.34;5237117;28;20592;-65
2023/07/01 07:38:14;;;;;;;2.78;2.58;;;;;;;-145.79;90.95;76362.09;5237881;28;20029;-67
2023/07/01 07:40:45;;;;;;;2.72;2.30;;;;;;;-145.79;91.16;76359.97;5242142;28;20017;-65
2023/07/01 07:43:16;;;;;;;2.97;1.95;;;;;;;-145.79;90.74;76347.25;5256471;28;20056;-65
2023/07/01 07:45:48;;;;;;;2.45;2.05;;;;;;;-145.79;90.75;76345.16;5256037;28;20036;-65
2023/07/01 07:48:19;;;;;;;1.88;1.77;;;;;;;-145.79;90.32;76336.66;5257964;28;20037;-65
2023/07/01 07:50:50;;;;;;;3.05;2.30;;;;;;;-145.79;90.53;76330.31;5254784;28;20481;-66
2023/07/01 07:53:22;;;;;;;2.30;1.85;;;;;;;-145.79;90.82;76332.44;5241661;28;20041;-66
2023/07/01 07:55:53;;;;;;;2.20;2.00;;;;;;;-145.79;90.84;76323.97;5256526;28;20096;-66
2023/07/01 07:58:27;;;;;;;4.38;2.38;;;;;;;-145.79;89.78;76302.75;5250888;28;20092;-66
2023/07/01 08:00:58;;;;;;;1.95;1.75;;;;;;;-145.79;89.43;76290.06;5238935;28;20367;-66
2023/07/01 08:03:32;;;;;;;2.22;1.85;;;;;;;-145.79;89.84;76292.16;5262797;28;20142;-67
2023/07/01 08:06:04;;;;;;;2.38;2.13;;;;;;;-145.79;89.66;76292.16;5256650;28;20034;-66
2023/07/01 08:08:35;;;;;;;1.90;1.63;;;;;;;-145.79;90.11;76283.69;5237386;28;20025;-67
2023/07/01 08:11:07;;;;;;;1.85;1.60;;;;;;;-145.79;90.42;76283.69;5242728;28;20032;-67
2023/07/01 08:13:38;;;;;;;1.65;1.55;;;;;;;-145.79;90.60;76266.75;5257365;28;20129;-67
2023/07/01 08:16:09;;;;;;;3.53;1.48;;;;;;;-145.79;90.66;76273.09;5246877;28;20378;-67
2023/07/01 08:18:41;;;;;;;1.63;1.52;;;;;;;-145.79;90.53;76275.22;5248495;28;20038;-67
2023/07/01 08:21:12;;;;;;;1.50;1.40;;;;;;;-145.79;90.76;76281.56;5236921;28;20044;-66
2023/07/01 08:23:43;;;;;;;2.03;1.60;;;;;;;-145.79;90.63;76254.03;5237019;28;20034;-67
2023/07/01 08:26:15;;;;;;;2.58;1.13;;;;;;;-145.79;90.71;76258.25;5236422;28;20079;-67
2023/07/01 08:28:46;;;;;;;3.53;2.20;;;;;;;-145.79;91.40;76251.91;5247427;28;20118;-68
2023/07/01 08:31:18;;;;;;;1.40;1.30;;;;;;;-145.79;91.25;76260.38;5256490;28;20425;-68
2023/07/01 08:33:49;;;;;;;2.65;1.20;;;;;;;-145.79;90.46;76249.78;5245937;28;20342;-68
2023/07/01 08:36:20;;;;;;;3.45;1.60;;;;;;;-145.79;90.94;76241.31;5233957;28;20480;-68
2023/07/01 08:38:52;;;;;;;2.38;1.30;;;;;;;-145.79;91.13;76241.31;5236815;28;20120;-68
2023/07/01 08:41:25;;;;;;;2.78;1.30;;;;;;;-145.79;90.63;76237.06;5238948;28;20079;-68
2023/07/01 08:43:57;;;;;;;1.77;1.10;;;;;;;-145.79;90.85;76222.25;5243295;28;20495;-68
2023/07/01 08:46:29;;;;;;;1.88;1.20;;;;;;;-145.79;90.18;76220.13;5242500;28;20389;-69
2023/07/01 08:49:01;;;;;;;2.55;1.25;;;;;;;-145.79;88.83;76201.06;5243326;28;20109;-68
2023/07/01 08:51:38;;;;;;;2.75;0.85;;;;;;;-145.79;90.68;76230.72;5243324;28;20108;-68
2023/07/01 08:54:10;;;;;;;1.27;1.00;;;;;;;-145.79;88.59;76194.69;5222229;28;20030;-67
2023/07/01 08:56:42;;;;;;;1.40;0.98;;;;;;;-145.79;89.04;76203.16;5232432;28;20021;-68
2023/07/01 08:59:14;;;;;;;0.98;0.85;;;;;;;-145.79;88.39;76194.69;5226796;28;20389;-68
2023/07/01 09:01:46;;;;;;;1.00;0.70;;;;;;;-145.79;89.16;76190.47;5221539;28;20026;-68
2023/07/01 09:04:17;;;;;;;1.77;0.80;;;;;;;-145.79;88.55;76179.88;5222790;28;20389;-68
2023/07/01 09:06:49;;;;;;;0.80;0.80;;;;;;;-145.79;89.55;76177.75;5223565;28;20037;-68
2023/07/01 09:09:20;;;;;;;0.75;0.75;;;;;;;-145.79;88.84;76179.88;5224717;28;20108;-68
2023/07/01 09:11:51;;;;;;;1.23;0.80;;;;;;;-145.79;89.47;76181.97;5249724;28;20053;-68
2023/07/01 09:14:23;;;;;;;1.48;1.35;;;;;;;-145.79;90.54;76198.94;5239283;28;20029;-67
2023/07/01 09:16:54;;;;;;;1.00;0.90;;;;;;;-145.79;88.66;76165.03;5236722;28;20101;-68
2023/07/01 09:19:25;;;;;;;0.75;0.70;;;;;;;-145.79;89.69;76181.97;5242852;28;20442;-67
2023/07/01 09:22:09;;;;;;;0.73;0.63;;;;;;;-145.79;90.10;76162.91;5241704;28;20045;-68
2023/07/01 09:24:40;;;;;;;1.60;0.70;;;;;;;-145.79;89.87;76165.03;5240724;28;20040;-67
2023/07/01 09:27:11;;;;;;;1.83;1.00;;;;;;;-145.79;89.53;76158.66;5238921;28;20021;-66
2023/07/01 09:29:43;;;;;;;1.05;0.80;;;;;;;-145.79;89.65;76156.56;5239042;28;20571;-67
2023/07/01 09:32:29;;;;;;;0.60;0.60;;;;;;;-145.79;89.00;76143.84;5222415;28;20041;-66
2023/07/01 09:35:01;;;;;;;1.55;1.00;;;;;;;-145.79;89.44;76148.06;5221163;28;20180;-66
2023/07/01 09:37:32;;;;;;;1.30;1.05;;;;;;;-145.79;90.40;76137.47;5240037;28;20475;-67
2023/07/01 09:40:21;;;;;;;1.10;1.00;;;;;;;-145.79;88.79;76120.53;5242344;28;20055;-67
2023/07/01 09:42:55;;;;;;;1.40;1.20;;;;;;;-145.79;89.14;76118.41;5223025;28;20029;-67
2023/07/01 09:45:29;;;;;;;1.23;0.90;;;;;;;-145.79;90.16;76122.66;5225611;28;20028;-67
2023/07/01 09:48:14;;;;;;;3.88;1.00;;;;;;;-145.79;87.63;76084.50;5242206;28;20033;-67
2023/07/01 09:50:46;;;;;;;0.93;0.80;;;;;;;-145.79;87.80;76086.63;5240823;28;20087;-67
2023/07/01 09:53:22;;;;;;;1.80;0.80;;;;;;;-145.79;88.20;76080.28;5241968;28;20033;-67
2023/07/01 09:55:57;;;;;;;0.88;0.80;;;;;;;-145.79;87.29;76067.56;5242276;28;20038;-67
2023/07/01 09:58:30;;;;;;;1.50;0.83;;;;;;;-145.79;87.43;76073.91;5228969;28;20029;-66
2023/07/01 10:01:01;;;;;;;1.20;1.10;;;;;;;-145.79;87.28;76059.09;5233654;28;20289;-67
2023/07/01 10:03:33;;;;;;;1.40;1.23;;;;;;;-145.79;88.79;76084.50;5224949;28;20086;-66
2023/07/01 10:06:05;;;;;;;1.63;1.10;;;;;;;-145.79;89.03;76090.88;5241853;28;20065;-66
2023/07/01 10:08:37;;;;;;;1.38;1.27;;;;;;;-145.79;89.08;76101.47;5240508;28;20041;-66
2023/07/01 10:11:17;;;;;;;1.80;1.70;;;;;;;-145.79;87.83;76080.28;5240468;28;20042;-67
2023/07/01 10:13:52;;;;;;;2.83;1.40;;;;;;;-145.79;88.30;76071.78;5241040;28;20025;-67
2023/07/01 10:16:24;;;;;;;1.52;1.30;;;;;;;-145.79;88.45;76073.91;5232220;28;20050;-66
2023/07/01 10:18:55;;;;;;;1.27;1.17;;;;;;;-145.79;89.27;76080.28;5238405;28;20041;-66
2023/07/01 10:21:29;;;;;;;1.20;1.10;;;;;;;-145.79;89.58;76088.75;5244763;28;20135;-66
2023/07/01 10:24:01;;;;;;;1.20;1.10;;;;;;;-145.79;88.62;76067.56;5262683;28;20024;-68
2023/07/01 10:26:46;;;;;;;3.85;1.42;;;;;;;-145.79;88.63;76056.97;5261276;28;20020;-67
2023/07/01 10:29:27;;;;;;;1.70;1.60;;;;;;;-145.79;89.87;76071.78;5238005;28;20036;-66
2023/07/01 10:32:08;;;;;;;1.98;1.30;;;;;;;-145.79;89.27;76052.72;5219911;28;20117;-66
2023/07/01 10:34:55;;;;;;;3.83;2.97;;;;;;;-145.79;89.62;76056.97;5227761;28;20057;-67
2023/07/01 10:37:27;;;;;;;13.70;12.55;;;;;;;-145.79;89.34;76056.97;5240944;28;20033;-67
2023/07/01 10:40:07;;;;;;;8.48;7.78;;;;;;;-145.79;88.90;76033.66;5241274;28;20033;-68
2023/07/01 10:42:40;;;;;;;3.17;2.10;;;;;;;-145.79;88.40;76061.19;5238804;28;20030;-68
2023/07/01 10:45:26;;;;;;;3.70;2.20;;;;;;;-145.79;88.15;76031.53;5242141;28;20033;-70
2023/07/01 10:48:18;;;;;;;4.30;3.95;;;;;;;-145.79;89.20;76046.38;5241306;28;20108;-68
2023/07/01 10:51:05;;;;;;;2.00;1.65;;;;;;;-145.79;87.60;76020.94;5240276;28;20041;-65
2023/07/01 10:53:59;;;;;;;1.98;1.73;;;;;;;-145.79;87.75;76010.34;5219605;28;20034;-66
2023/07/01 10:56:36;;;;;;;2.53;2.15;;;;;;;-145.79;88.23;76029.41;5221138;28;20035;-68
2023/07/01 10:59:17;;;;;;;2.55;2.35;;;;;;;-145.79;88.44;76016.69;5224402;28;20022;-66
2023/07/01 11:01:56;;;;;;;2.33;2.10;;;;;;;-145.79;88.06;76014.59;5235970;28;20464;-67
2023/07/01 11:04:52;;;;;;;2.13;1.75;;;;;;;-145.79;87.85;75989.16;5233342;28;20057;-67
2023/07/01 11:07:27;;;;;;;3.40;3.10;;;;;;;-145.79;88.48;76008.22;5239060;28;20050;-68
2023/07/01 11:10:04;;;;;;;2.33;1.80;;;;;;;-145.79;86.20;75970.09;5239515;28;20040;-66
2023/07/01 11:12:36;;;;;;;3.88;2.50;;;;;;;-145.79;86.40;75963.72;5239001;28;20013;-67
2023/07/01 11:15:15;;;;;;;2.92;2.42;;;;;;;-145.79;85.71;75961.63;5240151;28;20037;-66
2023/07/01 11:17:53;;;;;;;3.38;3.08;;;;;;;-145.79;86.11;75980.69;5232752;28;20489;-67
2023/07/01 11:20:57;;;;;;;3.10;2.90;;;;;;;-145.79;87.22;75955.25;5220449;28;20030;-74
2023/07/01 11:23:28;;;;;;;2.60;2.40;;;;;;;-145.79;85.17;75919.22;5240834;28;20042;-66
2023/07/01 11:26:00;;;;;;;2.70;2.50;;;;;;;-145.79;84.47;75915.00;5233850;28;20392;-66
2023/07/01 11:28:35;;;;;;;2.67;2.47;;;;;;;-145.79;84.10;75915.00;5239826;28;20017;-65
2023/07/01 11:31:21;;;;;;;2.55;2.35;;;;;;;-145.79;84.42;75923.47;5237540;28;20052;-66
2023/07/01 11:33:55;;;;;;;4.85;2.25;;;;;;;-145.79;82.61;75908.63;5232139;28;20040;-66
2023/07/01 11:36:36;;;;;;;1.92;1.83;;;;;;;-145.79;82.52;75889.56;5221126;28;20405;-67
2023/07/01 11:39:26;;;;;;;4.20;3.88;;;;;;;-145.79;83.58;75887.44;5219253;28;20041;-69
2023/07/01 11:42:03;;;;;;;2.20;2.00;;;;;;;-145.79;81.72;75855.66;5221188;28;20405;-67
2023/07/01 11:44:34;;;;;;;2.10;1.90;;;;;;;-145.79;81.23;75857.78;5239535;28;20029;-67
2023/07/01 11:47:15;;;;;;;5.05;3.50;;;;;;;-145.79;80.68;75847.19;5235330;28;20079;-67
2023/07/01 11:49:47;;;;;;;2.28;2.08;;;;;;;-145.79;81.18;75851.44;5229053;28;20025;-67
2023/07/01 11:52:23;;;;;;;5.32;4.93;;;;;;;-145.79;80.11;75847.19;5228201;28;20080;-68
2023/07/01 11:55:07;;;;;;;1.90;1.70;;;;;;;-145.79;80.57;75847.19;5227948;28;20604;-66
2023/07/01 11:57:38;;;;;;;3.10;2.80;;;;;;;-145.79;81.50;75847.19;5238911;28;20385;-67
2023/07/01 12:00:29;;;;;;;3.90;2.10;;;;;;;-145.79;81.15;75859.91;5238063;28;20045;-67
2023/07/01 12:03:00;;;;;;;5.82;2.00;;;;;;;-145.79;79.68;75832.34;5235797;28;20140;-67
2023/07/01 12:05:34;;;;;;;2.95;2.28;;;;;;;-145.79;78.95;75823.88;5239754;28;20417;-67
2023/07/01 12:08:05;;;;;;;2.17;2.03;;;;;;;-145.79;78.50;75817.53;5240881;28;20118;-66
2023/07/01 12:10:38;;;;;;;2.35;2.15;;;;;;;-145.79;79.04;75842.97;5242415;28;20108;-67
2023/07/01 12:13:29;;;;;;;4.35;3.08;;;;;;;-145.79;77.98;75834.47;5240694;28;20099;-71
2023/07/01 12:16:04;;;;;;;4.38;3.97;;;;;;;-145.79;78.32;75853.56;5238906;28;20021;-71
2023/07/01 12:18:35;;;;;;;4.28;3.90;;;;;;;-145.79;78.03;75855.66;5241291;28;20045;-73
2023/07/01 12:21:08;;;;;;;3.58;3.28;;;;;;;-145.79;77.60;75840.84;5243070;28;20041;-72
2023/07/01 12:23:44;;;;;;;5.00;4.50;;;;;;;-145.79;76.69;75855.66;5243477;28;20396;-71
2023/07/01 12:26:16;;;;;;;6.10;5.60;;;;;;;-145.79;77.55;75851.44;5241527;28;20064;-71
2023/07/01 12:28:47;;;;;;;5.97;5.47;;;;;;;-145.79;77.26;75876.84;5243502;28;20018;-70
2023/07/01 12:31:19;;;;;;;6.50;5.90;;;;;;;-145.79;78.33;75898.03;5242978;28;20055;-69
2023/07/01 12:33:50;;;;;;;6.60;6.10;;;;;;;-145.79;81.84;75908.63;5238844;28;20075;-71
2023/07/01 12:36:21;;;;;;;6.28;5.68;;;;;;;-145.79;83.54;75919.22;5241813;28;20021;-72
2023/07/01 12:38:53;;;;;;;5.00;4.60;;;;;;;-145.79;84.52;75919.22;5242044;28;20026;-72
2023/07/01 12:41:29;;;;;;;5.38;4.70;;;;;;;-145.79;85.63;75940.41;5241173;28;20029;-71
2023/07/01 12:44:05;;;;;;;4.30;3.90;;;;;;;-145.79;85.09;75936.19;5241424;28;20029;-70
2023/07/01 12:46:38;;;;;;;10.75;9.65;;;;;;;-145.79;85.58;75948.91;5240828;28;20369;-73
2023/07/01 12:49:11;;;;;;;6.00;5.50;;;;;;;-145.79;86.67;75982.81;5240109;28;20029;-71
2023/07/01 12:51:43;;;;;;;4.00;3.60;;;;;;;-145.79;86.28;75944.66;5242050;28;20017;-70
2023/07/01 12:54:15;;;;;;;6.55;5.60;;;;;;;-145.79;86.59;75963.72;5241162;28;20096;-70
2023/07/01 12:56:46;;;;;;;4.85;4.35;;;;;;;-145.79;86.29;76023.06;5240550;28;20109;-70
2023/07/01 12:59:17;;;;;;;10.80;9.90;;;;;;;-145.79;88.61;75999.75;5240649;28;20025;-73
2023/07/01 13:01:49;;;;;;;14.45;13.02;;;;;;;-145.79;87.34;76008.22;5243378;28;20035;-71
2023/07/01 13:04:21;;;;;;;4.70;4.30;;;;;;;-145.79;87.14;75982.81;5243106;28;20099;-71
2023/07/01 13:06:52;;;;;;;5.30;4.35;;;;;;;-145.79;87.31;76020.94;5240057;28;20056;-73
2023/07/01 13:09:48;;;;;;;5.82;5.15;;;;;;;-145.79;89.83;76044.25;5247764;28;20092;-71
2023/07/01 13:12:22;;;;;;;4.05;3.50;;;;;;;-145.79;89.34;76037.88;5241624;28;20029;-71
2023/07/01 13:14:57;;;;;;;3.30;3.00;;;;;;;-145.79;88.40;76105.69;5240639;28;20068;-78
2023/07/01 13:17:37;;;;;;;6.22;5.53;;;;;;;-145.79;88.81;76118.41;5240033;28;20049;-72
2023/07/01 13:20:09;;;;;;;3.17;2.88;;;;;;;-145.79;89.11;76122.66;5239522;28;20033;-70
2023/07/01 13:22:41;;;;;;;3.97;3.20;;;;;;;-145.79;89.55;76124.78;5240865;28;20053;-71
2023/07/01 13:25:19;;;;;;;5.82;5.18;;;;;;;-145.79;89.79;76099.34;5238012;28;20436;-71
2023/07/01 13:27:51;;;;;;;5.10;4.13;;;;;;;-145.79;88.51;76109.94;5239249;28;20082;-73
2023/07/01 13:30:34;;;;;;;4.45;4.05;;;;;;;-145.79;90.92;76082.38;5242329;28;20025;-72
2023/07/01 13:33:06;;;;;;;3.80;3.50;;;;;;;-145.79;88.85;76086.63;5241897;28;20037;-73
2023/07/01 13:35:38;;;;;;;7.90;7.10;;;;;;;-145.79;88.23;76088.75;5241488;28;20079;-72
2023/07/01 13:38:11;;;;;;;3.67;3.38;;;;;;;-145.79;87.70;76029.41;5221007;28;20033;-72
2023/07/01 13:40:46;;;;;;;5.43;3.33;;;;;;;-145.79;86.53;76010.34;5235846;28;20033;-71
2023/07/01 13:43:21;;;;;;;4.65;3.70;;;;;;;-145.79;85.83;76020.94;5242521;28;20010;-71
2023/07/01 13:45:52;;;;;;;4.13;3.73;;;;;;;-145.79;84.78;76008.22;5242344;28;20018;-73
2023/07/01 13:48:35;;;;;;;7.25;4.85;;;;;;;-145.79;85.09;76016.69;5240470;28;20037;-74
2023/07/01 13:51:06;;;;;;;2.90;2.70;;;;;;;-145.79;83.76;75974.31;5238190;28;20028;-77
2023/07/01 13:53:38;;;;;;;7.50;6.80;;;;;;;-145.79;84.74;76020.94;5241497;28;20014;-77
2023/07/01 13:56:10;;;;;;;4.03;3.60;;;;;;;-145.79;85.15;76012.47;5243037;28;20037;-77
2023/07/01 13:58:48;;;;;;;6.10;5.60;;;;;;;-145.79;85.66;76018.81;5240822;28;20025;-80
2023/07/01 14:01:19;;;;;;;5.20;4.70;;;;;;;-145.79;85.21;76046.38;5240613;28;20064;-74
2023/07/01 14:04:00;;;;;;;5.82;4.30;;;;;;;-145.79;85.77;76076.03;5240799;28;20049;-77
2023/07/01 14:06:37;;;;;;;4.30;3.92;;;;;;;-145.79;86.46;76052.72;5241506;28;20029;-74
2023/07/01 14:09:21;;;;;;;6.32;4.40;;;;;;;-145.79;84.66;76010.34;5240340;28;20041;-75
2023/07/01 14:11:53;;;;;;;5.82;5.20;;;;;;;-145.79;85.26;76065.44;5239908;28;20029;-75
2023/07/01 14:14:31;;;;;;;6.55;4.82;;;;;;;-145.79;86.10;76061.19;5241210;28;20014;-72
2023/07/01 14:17:02;;;;;;;4.93;4.40;;;;;;;-145.79;85.90;76076.03;5239144;28;20092;-74
2023/07/01 14:19:36;;;;;;;4.40;4.00;;;;;;;-145.79;84.99;76027.28;5240546;28;20079;-74
2023/07/01 14:22:10;;;;;;;5.50;4.32;;;;;;;-145.79;85.51;76073.91;5240721;28;20069;-76
2023/07/01 14:24:44;;;;;;;14.32;12.82;;;;;;;-145.79;86.50;76084.50;5238081;28;20080;-73
2023/07/01 14:27:29;;;;;;;7.47;6.32;;;;;;;-145.79;86.93;76084.50;5237210;28;20021;-75
2023/07/01 14:30:00;;;;;;;9.57;5.93;;;;;;;-145.79;87.12;76105.69;5237085;28;20032;-75
2023/07/01 14:32:32;;;;;;;7.60;6.07;;;;;;;-145.79;87.75;76097.22;5237300;28;20021;-73
2023/07/01 14:35:08;;;;;;;6.45;5.65;;;;;;;-145.79;86.65;76067.56;5238149;28;20036;-75
2023/07/01 14:37:39;;;;;;;10.02;9.00;;;;;;;-145.79;87.05;76076.03;5238684;28;20401;-73
2023/07/01 14:40:11;;;;;;;6.45;5.35;;;;;;;-145.79;87.20;76071.78;5222822;28;20040;-76
2023/07/01 14:42:43;;;;;;;4.78;4.38;;;;;;;-145.79;86.20;76023.06;5219244;28;20038;-78
2023/07/01 14:45:14;;;;;;;4.75;4.10;;;;;;;-145.79;84.77;76012.47;5232231;28;20025;-74
2023/07/01 14:47:48;;;;;;;4.30;3.72;;;;;;;-145.79;84.21;75982.81;5240546;28;20060;-83
2023/07/01 14:50:19;;;;;;;4.90;4.22;;;;;;;-145.79;83.98;75974.31;5235182;28;20029;-76
2023/07/01 14:52:51;;;;;;;5.35;4.55;;;;;;;-145.79;83.11;75991.28;5238899;28;20025;-75
2023/07/01 14:55:22;;;;;;;9.35;7.93;;;;;;;-145.79;82.80;75970.09;5240574;28;20517;-75
2023/07/01 14:57:53;;;;;;;4.45;3.92;;;;;;;-145.79;83.21;75987.03;5240540;28;20077;-75
2023/07/01 15:00:25;;;;;;;3.42;3.13;;;;;;;-145.79;82.48;75959.50;5239047;28;20032;-76
2023/07/01 15:02:56;;;;;;;4.10;3.63;;;;;;;-145.79;80.97;75978.56;5241738;28;20025;-72
2023/07/01 15:05:28;;;;;;;3.63;3.10;;;;;;;-145.79;81.47;75995.50;5240687;28;20444;-71
2023/07/01 15:07:59;;;;;;;10.38;9.35;;;;;;;-145.79;81.19;75987.03;5221441;28;20029;-75
2023/07/01 15:10:35;;;;;;;4.10;3.70;;;;;;;-145.79;79.87;75965.84;5230026;28;20116;-66
2023/07/01 15:13:08;;;;;;;4.00;2.30;;;;;;;-145.79;79.02;75963.72;5239626;28;20029;-69
2023/07/01 15:15:40;;;;;;;3.33;2.50;;;;;;;-145.79;78.47;75991.28;5240688;28;20385;-70
2023/07/01 15:18:12;;;;;;;4.30;2.45;;;;;;;-145.79;78.76;75978.56;5238103;28;20035;-68
2023/07/01 15:20:43;;;;;;;2.50;1.80;;;;;;;-145.79;77.18;75963.72;5238656;28;20557;-70
2023/07/01 15:23:14;;;;;;;1.98;1.77;;;;;;;-145.79;75.59;76001.88;5237376;28;20152;-67
2023/07/01 15:25:46;;;;;;;4.60;2.33;;;;;;;-145.79;75.89;76037.88;5239442;28;20086;-68
2023/07/01 15:28:18;;;;;;;3.72;3.25;;;;;;;-145.79;76.79;76033.66;5238073;28;20021;-68
2023/07/01 15:30:50;;;;;;;3.88;1.70;;;;;;;-145.79;75.49;76023.06;5239332;28;20029;-68
2023/07/01 15:33:21;;;;;;;1.90;1.65;;;;;;;-145.79;74.63;76033.66;5239488;28;20100;-67
2023/07/01 15:35:52;;;;;;;2.55;1.42;;;;;;;-145.79;73.47;76073.91;5233729;28;20131;-68
2023/07/01 15:38:24;;;;;;;1.65;1.23;;;;;;;-145.79;72.58;76097.22;5237933;28;20079;-69
2023/07/01 15:40:55;;;;;;;1.67;1.58;;;;;;;-145.79;73.10;76105.69;5225806;28;20017;-67
2023/07/01 15:43:30;;;;;;;2.00;1.40;;;;;;;-145.79;73.34;76107.81;5245831;28;20043;-69
2023/07/01 15:46:01;;;;;;;1.77;1.40;;;;;;;-145.79;74.55;76069.69;5241844;28;20041;-68
2023/07/01 15:48:32;;;;;;;1.83;1.40;;;;;;;-145.79;73.33;76076.03;5252353;28;20032;-68
2023/07/01 15:51:03;;;;;;;1.88;1.65;;;;;;;-145.79;74.04;76054.84;5241492;28;20025;-69
2023/07/01 15:53:35;;;;;;;1.75;1.65;;;;;;;-145.79;72.96;76067.56;5242746;28;20114;-69
2023/07/01 15:56:06;;;;;;;1.55;1.45;;;;;;;-145.79;74.23;76084.50;5243698;28;20032;-67
2023/07/01 15:58:38;;;;;;;3.75;1.77;;;;;;;-145.79;73.54;76052.72;5228745;28;20022;-70
2023/07/01 16:01:09;;;;;;;12.13;10.88;;;;;;;-145.79;71.93;76084.50;5225820;28;20112;-68
2023/07/01 16:03:40;;;;;;;2.42;1.90;;;;;;;-145.79;72.27;76076.03;5242436;28;20035;-68
2023/07/01 16:06:17;;;;;;;13.60;12.45;;;;;;;-145.79;71.38;76086.63;5243964;28;20030;-67
2023/07/01 16:08:51;;;;;;;2.58;2.33;;;;;;;-145.79;72.95;76054.84;5240189;28;20187;-67
2023/07/01 16:11:32;;;;;;;1.92;1.83;;;;;;;-145.79;71.84;76084.50;5241959;28;20021;-69
2023/07/01 16:14:03;;;;;;;2.10;1.25;;;;;;;-145.79;70.55;76114.19;5241987;28;20026;-69
2023/07/01 16:16:35;;;;;;;1.42;1.30;;;;;;;-145.79;71.60;76124.78;5243106;28;20466;-68
2023/07/01 16:19:11;;;;;;;2.00;1.80;;;;;;;-145.79;71.41;76131.13;5243119;28;20078;-69
2023/07/01 16:21:43;;;;;;;1.30;1.20;;;;;;;-145.79;71.31;76162.91;5250753;28;20052;-68
2023/07/01 16:24:39;;;;;;;2.90;1.70;;;;;;;-145.79;72.89;76148.06;5261824;28;20021;-68
2023/07/01 16:27:13;;;;;;;1.88;1.48;;;;;;;-145.79;73.08;76152.31;5222009;28;20073;-68
2023/07/01 16:29:46;;;;;;;1.33;1.23;;;;;;;-145.79;72.41;76165.03;5221764;28;20057;-68
2023/07/01 16:32:20;;;;;;;2.00;1.60;;;;;;;-145.79;72.60;76169.25;5222409;28;20032;-68
2023/07/01 16:34:52;;;;;;;2.92;1.52;;;;;;;-145.79;73.10;76177.75;5220236;28;20040;-68
2023/07/01 16:37:23;;;;;;;2.28;1.50;;;;;;;-145.79;73.50;76190.47;5227566;28;20029;-67
2023/07/01 16:39:56;;;;;;;1.33;1.23;;;;;;;-145.79;73.99;76196.81;5241265;28;20018;-67
2023/07/01 16:42:35;;;;;;;2.05;1.15;;;;;;;-145.79;74.35;76207.41;5225896;28;20038;-67
2023/07/01 16:45:12;;;;;;;8.23;7.30;;;;;;;-145.79;73.83;76186.22;5227865;28;20033;-67
2023/07/01 16:47:43;;;;;;;2.50;1.52;;;;;;;-145.79;74.77;76190.47;5240702;28;20112;-67
2023/07/01 16:50:51;;;;;;;3.45;1.92;;;;;;;-145.79;74.79;76190.47;5222999;28;20584;-67
2023/07/01 16:53:23;;;;;;;1.63;1.23;;;;;;;-145.79;74.36;76194.69;5221923;28;20026;-68
